Time;durP1;ratioP1;P1;durP2;ratioP2;P2;SDS_P1;SDS_P2;PMS_P1;PMS_P2;Temp;Humidity;BMP_temperature;BMP_pressure;BME280_temperature;BME280_humidity;BME280_pressure;Samples;Min_cycle;Max_cycle;Signal;HPM_P1;HPM_P2
2023/02/21 02:14:53;;;;;;;35.50;22.37;;;;;;;8.09;100.00;100432.34;5052833;28;20706;-79
2023/02/21 02:17:32;;;;;;;42.63;24.27;;;;;;;8.12;100.00;100440.09;5053392;28;20247;-79
2023/02/21 02:20:32;;;;;;;35.17;24.67;;;;;;;8.02;100.00;100443.66;5053378;28;20251;-79
2023/02/21 02:23:34;;;;;;;40.20;24.73;;;;;;;8.03;100.00;100438.44;5052707;28;20207;-79
2023/02/21 02:26:24;;;;;;;43.07;25.00;;;;;;;8.02;100.00;100433.25;5036296;28;20209;-78
2023/02/21 02:29:08;;;;;;;43.43;24.93;;;;;;;8.05;100.00;100428.91;5053169;28;20225;-80
2023/02/21 02:31:45;;;;;;;44.87;25.57;;;;;;;8.12;100.00;100427.94;5053367;28;20270;-79
2023/02/21 02:34:46;;;;;;;37.33;23.50;;;;;;;8.17;100.00;100438.31;5053054;28;20212;-79
2023/02/21 02:37:21;;;;;;;33.50;23.47;;;;;;;8.19;100.00;100452.16;5053425;28;20226;-80
2023/02/21 02:39:52;;;;;;;30.00;22.03;;;;;;;8.17;100.00;100451.31;5052980;28;20638;-80
2023/02/21 02:42:31;;;;;;;34.00;21.53;;;;;;;8.20;100.00;100451.28;5053667;28;20212;-79
2023/02/21 02:45:00;;;;;;;36.10;20.83;;;;;;;8.26;100.00;100452.97;5054498;28;20213;-78
2023/02/21 02:47:34;;;;;;;28.10;20.47;;;;;;;8.28;100.00;100465.06;5053967;28;20202;-78
2023/02/21 02:50:04;;;;;;;28.77;19.60;;;;;;;8.22;100.00;100461.69;5053922;28;20225;-79
2023/02/21 02:52:30;;;;;;;25.57;19.03;;;;;;;8.16;100.00;100453.03;5053481;28;20205;-80
2023/02/21 02:54:59;;;;;;;29.70;19.03;;;;;;;8.25;100.00;100453.88;5053376;28;20255;-80
2023/02/21 02:57:27;;;;;;;27.00;19.77;;;;;;;8.15;100.00;100458.28;5053167;28;20228;-80
2023/02/21 02:59:53;;;;;;;27.07;20.50;;;;;;;8.15;100.00;100466.06;5056476;28;20225;-80
2023/02/21 03:02:41;;;;;;;25.23;18.87;;;;;;;8.20;100.00;100451.28;5057049;28;20213;-78
2023/02/21 03:05:22;;;;;;;26.90;18.73;;;;;;;8.26;100.00;100460.78;5057657;28;20197;-79
2023/02/21 03:07:58;;;;;;;26.23;20.03;;;;;;;8.26;100.00;100458.16;5056836;28;20212;-79
2023/02/21 03:10:34;;;;;;;23.93;19.63;;;;;;;8.25;100.00;100462.50;5057360;28;20202;-80
2023/02/21 03:13:07;;;;;;;28.50;20.30;;;;;;;8.26;100.00;100459.03;5056914;28;20196;-80
2023/02/21 03:15:38;;;;;;;27.40;20.87;;;;;;;8.14;100.00;100453.94;5057364;28;20229;-78
2023/02/21 03:18:10;;;;;;;30.37;21.00;;;;;;;8.09;100.00;100443.59;5057081;28;20720;-79
2023/02/21 03:20:40;;;;;;;29.53;21.43;;;;;;;8.15;100.00;100446.13;5057383;28;20270;-79
2023/02/21 03:23:08;;;;;;;31.60;21.97;;;;;;;8.15;100.00;100442.69;5056456;28;20221;-79
2023/02/21 03:25:37;;;;;;;31.83;20.73;;;;;;;8.24;100.00;100439.97;5056118;28;20680;-79
2023/02/21 03:28:03;;;;;;;30.50;22.00;;;;;;;8.30;100.00;100446.84;5056286;28;20301;-79
2023/02/21 03:30:30;;;;;;;29.70;20.77;;;;;;;8.16;100.00;100446.97;5057165;28;20205;-78
2023/02/21 03:32:57;;;;;;;32.30;22.20;;;;;;;8.16;100.00;100432.25;5055943;28;20503;-79
2023/02/21 03:35:28;;;;;;;28.13;21.07;;;;;;;8.19;100.00;100430.53;5055106;28;20248;-79
2023/02/21 03:37:57;;;;;;;29.20;20.70;;;;;;;8.28;100.00;100423.47;5053065;28;20619;-79
2023/02/21 03:40:27;;;;;;;30.90;19.87;;;;;;;8.21;100.00;100414.03;5056167;28;20209;-79
2023/02/21 03:42:55;;;;;;;26.50;19.90;;;;;;;8.21;100.00;100414.03;5053193;28;20198;-79
2023/02/21 03:45:22;;;;;;;32.40;19.67;;;;;;;8.13;100.00;100410.63;5056467;28;20251;-79
2023/02/21 03:47:48;;;;;;;30.37;21.13;;;;;;;8.04;100.00;100403.75;5056048;28;20549;-79
2023/02/21 03:50:15;;;;;;;34.33;20.57;;;;;;;8.04;100.00;100398.56;5055878;28;20198;-80
2023/02/21 03:52:41;;;;;;;34.90;22.57;;;;;;;8.10;100.00;100397.66;5055932;28;20282;-78
2023/02/21 03:55:10;;;;;;;30.80;22.30;;;;;;;8.10;100.00;100397.66;5055747;28;20196;-79
2023/02/21 03:57:36;;;;;;;38.60;24.20;;;;;;;8.11;100.00;100391.59;5055149;28;20197;-80
2023/02/21 04:00:04;;;;;;;39.97;23.23;;;;;;;8.12;100.00;100401.94;5056142;28;20197;-80
2023/02/21 04:02:30;;;;;;;39.20;22.10;;;;;;;8.11;100.00;100391.59;5054872;28;20279;-80
2023/02/21 04:04:56;;;;;;;34.03;22.33;;;;;;;8.08;100.00;100399.41;5055398;28;20228;-80
2023/02/21 04:07:23;;;;;;;39.73;24.40;;;;;;;8.13;100.00;100401.09;5055915;28;20200;-80
2023/02/21 04:09:49;;;;;;;45.40;24.13;;;;;;;8.20;100.00;100391.47;5053285;28;20718;-78
2023/02/21 04:12:17;;;;;;;40.47;24.10;;;;;;;8.15;100.00;100395.88;5054808;28;20243;-80
2023/02/21 04:14:43;;;;;;;35.37;23.00;;;;;;;8.25;100.00;100401.84;5055155;28;20251;-79
2023/02/21 04:17:10;;;;;;;35.77;22.10;;;;;;;8.19;100.00;100412.31;5054855;28;20268;-79
2023/02/21 04:19:36;;;;;;;37.23;23.50;;;;;;;8.21;100.00;100416.63;5054872;28;20227;-79
2023/02/21 04:22:03;;;;;;;34.87;22.60;;;;;;;8.17;100.00;100407.13;5054226;28;20228;-79
2023/02/21 04:24:29;;;;;;;39.47;24.67;;;;;;;8.19;100.00;100409.72;5054784;28;20251;-78
2023/02/21 04:26:55;;;;;;;41.87;25.10;;;;;;;8.21;100.00;100406.22;5054372;28;20190;-77
2023/02/21 04:29:23;;;;;;;42.10;26.03;;;;;;;8.15;100.00;100406.28;5054527;28;20301;-79
2023/02/21 04:31:50;;;;;;;49.07;26.93;;;;;;;8.19;100.00;100405.38;5054171;28;20202;-79
2023/02/21 04:34:16;;;;;;;49.30;27.73;;;;;;;8.15;100.00;100401.06;5053784;28;20668;-79
2023/02/21 04:36:43;;;;;;;49.40;27.90;;;;;;;8.16;100.00;100398.44;5054755;28;20224;-80
2023/02/21 04:39:09;;;;;;;51.87;26.93;;;;;;;8.20;100.00;100399.28;5053922;28;20263;-79
2023/02/21 04:41:36;;;;;;;49.90;29.57;;;;;;;8.21;100.00;100394.97;5054234;28;20245;-79
2023/02/21 04:44:02;;;;;;;48.77;28.70;;;;;;;8.21;100.00;100394.97;5053643;28;20194;-78
2023/02/21 04:46:30;;;;;;;51.40;27.30;;;;;;;8.21;100.00;100400.16;5053986;28;20625;-80
2023/02/21 04:48:56;;;;;;;56.37;28.07;;;;;;;8.20;100.00;100394.06;5054747;28;20244;-78
2023/02/21 04:51:24;;;;;;;52.53;27.17;;;;;;;8.26;100.00;100403.56;5054268;28;20582;-76
2023/02/21 04:53:52;;;;;;;46.17;26.70;;;;;;;8.18;100.00;100394.97;5054238;28;20255;-79
2023/02/21 04:56:20;;;;;;;48.23;28.20;;;;;;;8.21;100.00;100390.63;5053426;28;20224;-77
2023/02/21 04:58:47;;;;;;;47.60;26.90;;;;;;;8.26;100.00;100375.81;5052903;28;20315;-79
2023/02/21 05:01:14;;;;;;;52.77;27.13;;;;;;;8.30;100.00;100381.84;5053583;28;20206;-79
2023/02/21 05:03:42;;;;;;;45.67;27.60;;;;;;;8.20;100.00;100388.03;5055250;28;20205;-79
2023/02/21 05:06:08;;;;;;;48.63;26.80;;;;;;;8.24;100.00;100400.13;5054475;28;20251;-78
2023/02/21 05:08:36;;;;;;;50.53;29.47;;;;;;;8.17;100.00;100388.94;5054168;28;20248;-79
2023/02/21 05:11:02;;;;;;;51.90;28.70;;;;;;;8.27;100.00;100390.56;5054183;28;20206;-79
2023/02/21 05:13:28;;;;;;;48.63;27.40;;;;;;;8.25;100.00;100394.06;5054238;28;20205;-79
2023/02/21 05:15:55;;;;;;;53.93;27.23;;;;;;;8.28;100.00;100394.84;5054197;28;20231;-77
2023/02/21 05:18:27;;;;;;;46.03;27.50;;;;;;;8.29;100.00;100390.53;5054450;28;20225;-79
2023/02/21 05:20:55;;;;;;;46.27;25.73;;;;;;;8.27;100.00;100405.31;5054432;28;20209;-80
2023/02/21 05:23:32;;;;;;;48.47;25.73;;;;;;;8.18;100.00;100395.84;5054744;28;20204;-78
2023/02/21 05:25:59;;;;;;;45.80;25.40;;;;;;;8.16;100.00;100400.19;5054389;28;20188;-79
2023/02/21 05:28:26;;;;;;;40.20;24.27;;;;;;;8.15;100.00;100391.53;5054118;28;20257;-78
2023/02/21 05:30:52;;;;;;;44.77;26.93;;;;;;;8.16;100.00;100387.19;5054059;28;20212;-79
2023/02/21 05:33:19;;;;;;;44.70;24.57;;;;;;;8.13;100.00;100393.28;5054164;28;20270;-79
2023/02/21 05:35:46;;;;;;;41.83;24.80;;;;;;;8.11;100.00;100387.25;5053808;28;20212;-79
2023/02/21 05:38:14;;;;;;;40.63;23.93;;;;;;;8.16;100.00;100393.25;5053475;28;20240;-79
2023/02/21 05:40:41;;;;;;;37.00;23.33;;;;;;;8.15;100.00;100401.06;5053998;28;20254;-79
2023/02/21 05:43:07;;;;;;;40.30;23.30;;;;;;;8.13;100.00;100387.22;5053671;28;20212;-79
2023/02/21 05:45:33;;;;;;;34.60;21.40;;;;;;;8.00;100.00;100383.03;5054621;28;20205;-80
2023/02/21 05:48:01;;;;;;;40.60;22.43;;;;;;;8.09;100.00;100380.34;5053850;28;20224;-78
2023/02/21 05:50:27;;;;;;;42.70;22.23;;;;;;;7.96;100.00;100384.78;5054276;28;20248;-79
2023/02/21 05:52:54;;;;;;;43.83;23.83;;;;;;;8.02;100.00;100395.13;5053462;28;20217;-79
2023/02/21 05:55:22;;;;;;;34.53;21.90;;;;;;;8.03;100.00;100383.84;5053800;28;20259;-79
2023/02/21 05:57:48;;;;;;;34.17;22.07;;;;;;;8.04;100.00;100384.72;5053623;28;20229;-78
2023/02/21 06:00:17;;;;;;;35.53;20.23;;;;;;;8.06;100.00;100401.16;5054141;28;20255;-78
2023/02/21 06:02:43;;;;;;;37.00;20.17;;;;;;;8.01;100.00;100406.41;5054236;28;20635;-79
2023/02/21 06:05:10;;;;;;;34.50;21.77;;;;;;;8.09;100.00;100406.34;5053457;28;20271;-79
2023/02/21 06:07:37;;;;;;;28.13;20.30;;;;;;;8.10;100.00;100398.50;5054743;28;20220;-79
2023/02/21 06:10:04;;;;;;;32.50;20.07;;;;;;;8.09;100.00;100391.59;5054400;28;20205;-78
2023/02/21 06:12:32;;;;;;;38.00;20.67;;;;;;;8.05;100.00;100397.69;5054158;28;20208;-79
2023/02/21 06:14:58;;;;;;;30.10;18.63;;;;;;;8.11;100.00;100396.78;5053970;28;20228;-78
2023/02/21 06:17:24;;;;;;;33.00;20.37;;;;;;;8.12;100.00;100406.28;5053415;28;20225;-79
2023/02/21 06:19:51;;;;;;;27.90;19.83;;;;;;;8.15;100.00;100407.13;5054010;28;20232;-78
2023/02/21 06:22:17;;;;;;;29.93;19.27;;;;;;;8.09;100.00;100404.59;5054037;28;20202;-78
2023/02/21 06:24:44;;;;;;;34.53;19.87;;;;;;;8.09;100.00;100417.59;5053975;28;20259;-79
2023/02/21 06:27:10;;;;;;;32.20;20.97;;;;;;;8.07;100.00;100415.91;5053771;28;20205;-78
2023/02/21 06:29:38;;;;;;;29.30;19.17;;;;;;;8.06;100.00;100409.81;5053133;28;20229;-79
2023/02/21 06:32:04;;;;;;;30.27;20.10;;;;;;;7.99;100.00;100402.97;5053466;28;20243;-79
2023/02/21 06:34:31;;;;;;;33.73;19.67;;;;;;;8.03;100.00;100409.84;5056019;28;20270;-79
2023/02/21 06:36:57;;;;;;;30.57;18.47;;;;;;;8.10;100.00;100398.50;5057496;28;20719;-79
2023/02/21 06:39:24;;;;;;;28.53;17.97;;;;;;;8.15;100.00;100416.69;5057142;28;20290;-79
2023/02/21 06:41:52;;;;;;;31.00;19.50;;;;;;;8.08;100.00;100417.59;5057930;28;20208;-79
2023/02/21 06:44:18;;;;;;;29.53;18.43;;;;;;;8.19;100.00;100415.78;5057411;28;20259;-78
2023/02/21 06:46:49;;;;;;;31.87;18.97;;;;;;;8.01;100.00;100415.91;5057310;28;20202;-79
2023/02/21 06:49:16;;;;;;;28.80;18.47;;;;;;;8.10;100.00;100410.66;5057171;28;20229;-79
2023/02/21 06:51:42;;;;;;;31.27;19.07;;;;;;;8.11;100.00;100423.63;5056992;28;20205;-79
2023/02/21 06:54:09;;;;;;;25.30;18.77;;;;;;;8.12;100.00;100419.28;5056881;28;20270;-78
2023/02/21 06:56:35;;;;;;;25.97;18.67;;;;;;;8.11;100.00;100422.78;5057278;28;20222;-79
2023/02/21 06:59:02;;;;;;;28.83;18.27;;;;;;;8.19;100.00;100431.38;5056566;28;20699;-79
2023/02/21 07:01:29;;;;;;;28.03;18.23;;;;;;;8.21;100.00;100433.97;5056383;28;20217;-79
2023/02/21 07:03:58;;;;;;;21.50;17.27;;;;;;;8.24;100.00;100449.53;5056482;28;20675;-79
2023/02/21 07:06:24;;;;;;;26.37;17.93;;;;;;;8.25;100.00;100449.50;5056540;28;20571;-78
2023/02/21 07:08:51;;;;;;;23.37;18.10;;;;;;;8.18;100.00;100452.19;5057178;28;20221;-79
2023/02/21 07:11:18;;;;;;;25.40;18.03;;;;;;;8.14;100.00;100452.19;5056748;28;20653;-79
2023/02/21 07:13:49;;;;;;;28.83;19.03;;;;;;;8.19;100.00;100467.78;5056496;28;20201;-78
2023/02/21 07:16:16;;;;;;;25.70;18.77;;;;;;;8.22;100.00;100456.47;5056209;28;20231;-78
2023/02/21 07:18:43;;;;;;;27.03;17.93;;;;;;;8.29;100.00;100465.97;5056135;28;20289;-78
2023/02/21 07:21:11;;;;;;;24.47;18.03;;;;;;;8.26;100.00;100477.22;5056132;28;20246;-77
2023/02/21 07:23:38;;;;;;;24.57;19.23;;;;;;;8.31;100.00;100485.00;5056427;28;20254;-79
2023/02/21 07:26:04;;;;;;;26.37;18.97;;;;;;;8.31;100.00;100480.66;5056707;28;20263;-78
2023/02/21 07:28:30;;;;;;;30.80;19.03;;;;;;;8.28;100.00;100477.22;5056473;28;20228;-78
2023/02/21 07:30:57;;;;;;;30.30;19.40;;;;;;;8.32;100.00;100485.00;5056086;28;20263;-78
2023/02/21 07:33:23;;;;;;;29.77;19.73;;;;;;;8.29;100.00;100486.75;5056474;28;20202;-79
2023/02/21 07:35:49;;;;;;;35.07;21.00;;;;;;;8.19;100.00;100470.38;5056607;28;20217;-80
2023/02/21 07:38:21;;;;;;;35.60;21.97;;;;;;;8.24;100.00;100468.56;5057355;28;20233;-78
2023/02/21 07:40:47;;;;;;;29.30;19.57;;;;;;;8.23;100.00;100459.06;5056111;28;20239;-78
2023/02/21 07:43:14;;;;;;;35.10;20.80;;;;;;;8.26;100.00;100465.97;5055600;28;20271;-78
2023/02/21 07:45:40;;;;;;;34.33;22.00;;;;;;;8.24;100.00;100473.78;5054370;28;20270;-78
2023/02/21 07:48:07;;;;;;;34.83;21.67;;;;;;;8.30;100.00;100467.66;5054671;28;20299;-78
2023/02/21 07:50:33;;;;;;;36.97;22.43;;;;;;;8.28;100.00;100482.41;5055535;28;20232;-79
2023/02/21 07:53:00;;;;;;;45.10;23.33;;;;;;;8.27;100.00;100473.75;5054855;28;20208;-78
2023/02/21 07:55:27;;;;;;;47.73;23.87;;;;;;;8.21;100.00;100475.56;5056287;28;20201;-78
2023/02/21 07:57:54;;;;;;;41.70;23.43;;;;;;;8.22;100.00;100483.31;5055230;28;20232;-78
2023/02/21 08:00:24;;;;;;;40.93;24.33;;;;;;;8.27;100.00;100486.78;5055317;28;20206;-78
2023/02/21 08:02:50;;;;;;;41.53;23.47;;;;;;;8.29;100.00;100481.56;5054111;28;20205;-78
2023/02/21 08:05:17;;;;;;;40.80;22.90;;;;;;;8.24;100.00;100497.19;5054795;28;20259;-79
2023/02/21 08:07:43;;;;;;;46.23;25.63;;;;;;;8.38;100.00;100494.47;5053977;28;20637;-78
2023/02/21 08:10:10;;;;;;;39.53;23.87;;;;;;;8.27;100.00;100502.38;5054140;28;20206;-79
2023/02/21 08:12:38;;;;;;;40.40;22.43;;;;;;;8.24;100.00;100494.59;5055375;28;20230;-79
2023/02/21 08:15:06;;;;;;;40.83;22.57;;;;;;;8.27;100.00;100501.50;5054709;28;20254;-78
2023/02/21 08:17:32;;;;;;;43.47;23.60;;;;;;;8.31;100.00;100504.06;5055056;28;20221;-79
2023/02/21 08:19:58;;;;;;;39.57;22.50;;;;;;;8.32;100.00;100502.31;5053775;28;20280;-78
2023/02/21 08:22:24;;;;;;;43.60;22.33;;;;;;;8.42;100.00;100511.78;5054816;28;20208;-78
2023/02/21 08:24:51;;;;;;;36.67;21.27;;;;;;;8.37;100.00;100521.38;5053231;28;20733;-80
2023/02/21 08:27:18;;;;;;;35.13;21.63;;;;;;;8.39;100.00;100516.16;5053974;28;20616;-79
2023/02/21 08:29:50;;;;;;;33.57;20.43;;;;;;;8.32;100.00;100526.63;5054326;28;20225;-78
2023/02/21 08:32:16;;;;;;;30.10;18.53;;;;;;;8.31;100.00;100527.47;5051871;28;20205;-78
2023/02/21 08:34:44;;;;;;;32.80;19.30;;;;;;;8.32;100.00;100533.53;5053447;28;20197;-78
2023/02/21 08:37:16;;;;;;;34.87;21.17;;;;;;;8.31;100.00;100532.69;5051381;28;20317;-78
2023/02/21 08:39:44;;;;;;;27.47;18.40;;;;;;;8.40;100.00;100536.06;5054807;28;20232;-78
2023/02/21 08:42:11;;;;;;;28.50;18.10;;;;;;;8.46;100.00;100543.84;5052452;28;20274;-77
2023/02/21 08:44:37;;;;;;;33.27;19.30;;;;;;;8.46;100.00;100551.66;5054445;28;20201;-78
2023/02/21 08:47:05;;;;;;;30.33;18.93;;;;;;;8.45;100.00;100555.16;5054103;28;20242;-78
2023/02/21 08:49:31;;;;;;;29.93;17.63;;;;;;;8.54;100.00;100574.16;5051385;28;20221;-78
2023/02/21 08:51:58;;;;;;;30.40;19.07;;;;;;;8.58;100.00;100567.16;5053987;28;20227;-78
2023/02/21 08:54:24;;;;;;;32.10;19.27;;;;;;;8.48;100.00;100568.13;5054431;28;20201;-79
2023/02/21 08:56:51;;;;;;;32.80;20.23;;;;;;;8.50;100.00;100566.34;5052103;28;20194;-79
2023/02/21 08:59:17;;;;;;;28.67;19.17;;;;;;;8.51;100.00;100568.97;5054746;28;20686;-78
2023/02/21 09:01:43;;;;;;;27.13;18.53;;;;;;;8.52;100.00;100573.28;5054122;28;20227;-78
2023/02/21 09:04:11;;;;;;;29.70;18.53;;;;;;;8.57;100.00;100567.19;5053264;28;20236;-79
2023/02/21 09:06:37;;;;;;;24.80;17.03;;;;;;;8.56;100.00;100563.69;5054231;28;20938;-79
2023/02/21 09:09:04;;;;;;;25.90;17.37;;;;;;;8.68;100.00;100565.34;5054368;28;20599;-78
2023/02/21 09:11:30;;;;;;;21.77;17.07;;;;;;;8.63;100.00;100577.53;5053636;28;20205;-79
2023/02/21 09:13:56;;;;;;;26.80;17.20;;;;;;;8.69;100.00;100567.06;5053658;28;20258;-79
2023/02/21 09:16:23;;;;;;;21.90;16.30;;;;;;;8.74;100.00;100573.97;5053863;28;20235;-78
2023/02/21 09:18:57;;;;;;;24.70;17.43;;;;;;;8.77;100.00;100575.66;5052807;28;20715;-79
2023/02/21 09:21:25;;;;;;;21.23;16.43;;;;;;;8.77;100.00;100570.47;5053621;28;20579;-78
2023/02/21 09:23:53;;;;;;;22.20;16.67;;;;;;;8.74;100.00;100568.75;5051297;28;20204;-79
2023/02/21 09:26:22;;;;;;;22.00;16.83;;;;;;;8.83;100.00;100553.94;5053608;28;20233;-78
2023/02/21 09:28:49;;;;;;;22.93;17.10;;;;;;;8.68;100.00;100565.34;5054220;28;20232;-78
2023/02/21 09:31:15;;;;;;;21.50;16.80;;;;;;;8.76;100.00;100550.53;5053307;28;20274;-77
2023/02/21 09:33:42;;;;;;;24.00;17.20;;;;;;;8.79;100.00;100547.88;5052383;28;20204;-78
2023/02/21 09:36:09;;;;;;;26.40;18.13;;;;;;;8.75;100.00;100561.81;5052879;28;20196;-78
2023/02/21 09:38:40;;;;;;;25.60;18.17;;;;;;;8.80;100.00;100552.22;5052786;28;20225;-78
2023/02/21 09:41:09;;;;;;;29.70;18.87;;;;;;;8.74;100.00;100552.25;5052574;28;20236;-79
2023/02/21 09:43:39;;;;;;;36.23;21.73;;;;;;;8.74;100.00;100542.75;5052906;28;20204;-78
2023/02/21 09:46:11;;;;;;;35.20;19.53;;;;;;;8.73;100.00;100527.97;5052218;28;20342;-77
2023/02/21 09:48:37;;;;;;;32.37;20.67;;;;;;;8.75;100.00;100547.03;5052734;28;20279;-79
2023/02/21 09:51:06;;;;;;;36.00;21.67;;;;;;;8.81;100.00;100542.66;5050868;28;20577;-78
2023/02/21 09:53:37;;;;;;;33.97;20.63;;;;;;;8.88;100.00;100555.63;5049014;28;20583;-78
2023/02/21 09:56:07;;;;;;;35.70;21.23;;;;;;;8.89;100.00;100565.13;5051476;28;20210;-77
2023/02/21 09:58:36;;;;;;;35.87;21.07;;;;;;;8.84;100.00;100560.84;5050286;28;20228;-78
2023/02/21 10:01:08;;;;;;;36.90;20.70;;;;;;;8.99;100.00;100558.09;5051612;28;20292;-77
2023/02/21 10:03:48;;;;;;;38.03;21.87;;;;;;;8.92;100.00;100566.88;5049649;28;20201;-77
2023/02/21 10:06:28;;;;;;;38.47;22.53;;;;;;;8.94;100.00;100565.09;5051097;28;20624;-78
2023/02/21 10:09:00;;;;;;;39.67;22.13;;;;;;;9.02;100.00;100560.69;5048718;28;20216;-78
2023/02/21 10:11:41;;;;;;;40.43;21.43;;;;;;;9.01;100.00;100565.91;5056498;28;20197;-78
2023/02/21 10:14:20;;;;;;;30.10;20.80;;;;;;;9.14;100.00;100570.97;5055702;28;20205;-79
2023/02/21 10:16:53;;;;;;;29.63;21.00;;;;;;;9.18;100.00;100574.41;5056017;28;20250;-77
2023/02/21 10:19:28;;;;;;;32.42;22.75;;;;;;;9.05;100.00;100593.63;5055542;28;20464;-78
2023/02/21 10:21:57;;;;;;;29.07;19.07;;;;;;;9.08;100.00;100594.47;5055919;28;20210;-79
2023/02/21 10:24:25;;;;;;;24.07;18.37;;;;;;;8.98;100.00;100597.16;5056097;28;20201;-79
2023/02/21 10:26:59;;;;;;;24.73;16.70;;;;;;;8.99;100.00;100593.69;5053518;28;20625;-80
2023/02/21 10:29:30;;;;;;;28.37;18.87;;;;;;;9.15;100.00;100603.06;5055355;28;20220;-78
2023/02/21 10:32:02;;;;;;;24.17;18.60;;;;;;;9.27;100.00;100595.09;5053548;28;20201;-78
2023/02/21 10:34:30;;;;;;;20.93;16.80;;;;;;;9.20;100.00;100627.31;5054811;28;20755;-77
2023/02/21 10:37:03;;;;;;;26.57;17.57;;;;;;;9.18;100.00;100615.19;5056742;28;20621;-79
2023/02/21 10:39:36;;;;;;;21.97;16.13;;;;;;;9.14;100.00;100624.78;5055469;28;20311;-78
2023/02/21 10:42:04;;;;;;;24.77;17.00;;;;;;;9.16;100.00;100625.63;5052320;28;20244;-78
2023/02/21 10:44:34;;;;;;;21.30;16.80;;;;;;;9.17;100.00;100632.56;5056133;28;20261;-78
2023/02/21 10:47:06;;;;;;;24.27;17.17;;;;;;;9.31;100.00;100629.81;5055393;28;20205;-78
2023/02/21 10:49:36;;;;;;;22.17;16.97;;;;;;;9.32;100.00;100629.81;5048950;28;20214;-79
2023/02/21 10:52:05;;;;;;;25.63;17.90;;;;;;;9.37;100.00;100618.47;5054188;28;20201;-78
2023/02/21 10:54:32;;;;;;;18.20;16.23;;;;;;;9.37;100.00;100629.75;5052238;28;20231;-78
2023/02/21 10:57:00;;;;;;;19.50;16.40;;;;;;;9.39;100.00;100645.34;5053374;28;20204;-79
2023/02/21 10:59:32;;;;;;;21.50;16.87;;;;;;;9.53;100.00;100643.47;5054905;28;20231;-80
2023/02/21 11:01:59;;;;;;;15.33;13.80;;;;;;;9.52;100.00;100654.78;5056826;28;20201;-79
2023/02/21 11:04:30;;;;;;;19.10;16.87;;;;;;;9.63;100.00;100647.72;5056609;28;20205;-79
2023/02/21 11:07:00;;;;;;;16.90;15.17;;;;;;;9.74;100.00;100663.22;5056419;28;20203;-79
2023/02/21 11:09:36;;;;;;;18.40;15.07;;;;;;;9.51;100.00;100672.16;5056233;28;20255;-79
2023/02/21 11:12:06;;;;;;;16.87;14.83;;;;;;;9.72;100.00;100665.81;5056928;28;20208;-79
2023/02/21 11:14:34;;;;;;;17.47;15.27;;;;;;;9.79;100.00;100682.28;5054521;28;20201;-79
2023/02/21 11:17:22;;;;;;;19.53;14.93;;;;;;;9.81;100.00;100690.06;5056799;28;20698;-79
2023/02/21 11:19:53;;;;;;;16.63;14.37;;;;;;;9.67;100.00;100698.03;5052233;28;20224;-79
2023/02/21 11:22:24;;;;;;;17.60;14.90;;;;;;;9.79;100.00;100697.91;5056234;28;20267;-79
2023/02/21 11:24:57;;;;;;;17.57;15.23;;;;;;;9.77;100.00;100709.22;5053586;28;20204;-79
2023/02/21 11:27:24;;;;;;;16.70;14.47;;;;;;;9.86;100.00;100707.38;5055828;28;20737;-78
2023/02/21 11:29:54;;;;;;;16.43;14.83;;;;;;;10.03;100.00;100715.00;5052544;28;20776;-78
2023/02/21 11:32:25;;;;;;;14.57;13.00;;;;;;;10.10;100.00;100723.63;5055284;28;20211;-80
2023/02/21 11:35:01;;;;;;;14.50;13.10;;;;;;;9.94;100.00;100751.63;5052960;28;20197;-79
2023/02/21 11:37:28;;;;;;;16.20;14.57;;;;;;;10.14;100.00;100740.94;5056179;28;20266;-80
2023/02/21 11:39:54;;;;;;;16.53;14.83;;;;;;;10.02;100.00;100726.31;5055819;28;20229;-79
2023/02/21 11:42:27;;;;;;;14.97;13.53;;;;;;;10.04;100.00;100744.56;5056899;28;20198;-80
2023/02/21 11:45:11;;;;;;;14.03;12.57;;;;;;;10.05;100.00;100746.25;5054099;28;20212;-79
2023/02/21 11:47:43;;;;;;;13.03;11.73;;;;;;;10.06;100.00;100755.84;5055158;28;20253;-80
2023/02/21 11:50:15;;;;;;;11.90;10.60;;;;;;;9.88;100.00;100773.41;5057070;28;20252;-79
2023/02/21 11:52:46;;;;;;;12.93;11.70;;;;;;;10.03;100.00;100758.47;5055983;28;20197;-78
2023/02/21 11:55:15;;;;;;;13.90;12.60;;;;;;;10.06;100.00;100742.78;5052940;28;20259;-79
2023/02/21 11:57:50;;;;;;;11.77;10.67;;;;;;;9.82;100.00;100759.59;5055364;28;20194;-78
2023/02/21 12:00:25;;;;;;;12.50;11.40;;;;;;;9.90;100.00;100757.75;5052715;28;20208;-78
2023/02/21 12:03:02;;;;;;;12.90;11.70;;;;;;;9.96;100.00;100757.69;5053244;28;20209;-80
2023/02/21 12:05:45;;;;;;;12.53;11.23;;;;;;;10.02;100.00;100772.41;4356461;28;10000722;-80
2023/02/21 12:08:49;;;;;;;12.90;11.67;;;;;;;10.11;100.00;100774.91;5052693;28;20291;-79
2023/02/21 12:11:36;;;;;;;11.87;10.80;;;;;;;10.16;100.00;100769.63;5010745;28;20199;-80
2023/02/21 12:14:17;;;;;;;11.87;10.67;;;;;;;10.22;100.00;100793.03;5046488;28;21638;-80
2023/02/21 12:16:59;;;;;;;12.33;11.13;;;;;;;10.12;99.70;100802.72;5051738;28;20208;-81
2023/02/21 12:19:41;;;;;;;13.43;12.03;;;;;;;10.14;100.00;100796.59;5052811;28;20884;-80
2023/02/21 12:22:24;;;;;;;11.80;10.60;;;;;;;10.19;99.77;100793.06;5053067;28;20232;-80
2023/02/21 12:25:01;;;;;;;11.80;10.70;;;;;;;10.21;99.18;100804.34;5050617;28;20205;-81
2023/02/21 12:27:37;;;;;;;12.17;11.07;;;;;;;10.12;99.69;100793.13;5052957;28;20251;-82
2023/02/21 12:30:19;;;;;;;12.87;11.67;;;;;;;10.17;99.09;100813.09;5052570;28;20243;-80
2023/02/21 12:32:53;;;;;;;11.23;10.23;;;;;;;10.64;97.12;100817.75;5051825;28;20587;-79
2023/02/21 12:36:01;;;;;;;11.73;10.60;;;;;;;10.84;95.68;100861.91;5052602;28;20213;-79
2023/02/21 12:38:32;;;;;;;11.00;10.00;;;;;;;10.72;94.29;100896.88;5052447;28;20283;-80
2023/02/21 12:41:08;;;;;;;12.53;11.53;;;;;;;10.74;94.65;100896.81;5052767;28;20194;-81
2023/02/21 12:43:49;;;;;;;11.33;10.33;;;;;;;10.41;95.22;100892.88;5050349;28;20732;-80
2023/02/21 12:46:22;;;;;;;10.90;9.90;;;;;;;10.26;94.58;100888.66;5053014;28;20205;-81
2023/02/21 12:48:56;;;;;;;10.73;9.73;;;;;;;10.13;96.12;100862.69;5053117;28;20229;-80
2023/02/21 12:51:28;;;;;;;10.77;9.83;;;;;;;10.11;95.13;100861.84;5052721;28;20215;-80
2023/02/21 12:53:59;;;;;;;11.73;10.57;;;;;;;10.04;95.80;100857.56;5052613;28;20239;-81
2023/02/21 12:56:30;;;;;;;10.13;9.23;;;;;;;10.12;95.31;100860.09;5052977;28;20205;-79
2023/02/21 12:59:03;;;;;;;10.53;9.50;;;;;;;10.17;96.17;100832.22;5053661;28;20589;-78
2023/02/21 13:01:32;;;;;;;9.97;9.03;;;;;;;10.04;96.15;100834.09;5046441;28;20605;-81
2023/02/21 13:04:12;;;;;;;10.13;9.23;;;;;;;10.01;96.27;100826.31;5052649;28;20258;-80
2023/02/21 13:06:47;;;;;;;10.63;9.67;;;;;;;10.08;96.84;100801.03;5053127;28;20684;-80
2023/02/21 13:09:25;;;;;;;10.93;9.93;;;;;;;10.21;97.11;100799.13;5052871;28;20721;-79
2023/02/21 13:11:59;;;;;;;10.47;9.50;;;;;;;10.00;96.19;100831.53;5052900;28;20277;-80
2023/02/21 13:14:29;;;;;;;9.83;8.83;;;;;;;9.91;96.86;100806.41;5052698;28;20232;-80
2023/02/21 13:16:55;;;;;;;10.43;9.53;;;;;;;10.03;96.36;100811.50;5052994;28;20251;-80
2023/02/21 13:19:25;;;;;;;9.03;8.23;;;;;;;10.25;95.37;100817.34;5052667;28;20237;-81
2023/02/21 13:22:10;;;;;;;10.70;9.70;;;;;;;10.61;93.43;100830.88;5052469;28;20263;-80
2023/02/21 13:24:48;;;;;;;9.57;8.77;;;;;;;10.86;93.50;100848.81;5052258;28;20210;-81
2023/02/21 13:27:34;;;;;;;9.47;8.60;;;;;;;10.83;92.92;100864.53;5053022;28;20616;-81
2023/02/21 13:30:05;;;;;;;9.70;8.73;;;;;;;10.99;94.64;100844.28;5052447;28;20280;-80
2023/02/21 13:32:37;;;;;;;10.37;9.47;;;;;;;10.97;92.68;100852.13;5052316;28;20205;-80
2023/02/21 13:35:07;;;;;;;11.03;10.03;;;;;;;10.68;93.19;100874.28;5051796;28;20205;-79
2023/02/21 13:37:43;;;;;;;11.10;10.03;;;;;;;10.63;92.68;100872.63;5051782;28;20763;-80